sensor_id;sensor_type;location;lat;lon;timestamp;temperature;humidity
26186;DHT22;20067;48.764;9.176;2022-10-16T00:00:17;17.00;91.30
26186;DHT22;20067;48.764;9.176;2022-10-16T00:02:42;17.00;91.30
26186;DHT22;20067;48.764;9.176;2022-10-16T00:05:08;17.00;91.30
26186;DHT22;20067;48.764;9.176;2022-10-16T00:07:34;17.10;91.30
26186;DHT22;20067;48.764;9.176;2022-10-16T00:09:59;17.00;91.30
26186;DHT22;20067;48.764;9.176;2022-10-16T00:12:25;17.00;91.30
26186;DHT22;20067;48.764;9.176;2022-10-16T00:14:51;16.90;91.30
26186;DHT22;20067;48.764;9.176;2022-10-16T00:17:17;16.90;91.30
26186;DHT22;20067;48.764;9.176;2022-10-16T00:19:42;16.80;91.30
26186;DHT22;20067;48.764;9.176;2022-10-16T00:22:08;16.80;91.30
26186;DHT22;20067;48.764;9.176;2022-10-16T00:24:34;16.90;91.30
26186;DHT22;20067;48.764;9.176;2022-10-16T00:26:59;16.80;91.30
26186;DHT22;20067;48.764;9.176;2022-10-16T00:29:25;16.70;91.30
26186;DHT22;20067;48.764;9.176;2022-10-16T00:31:54;16.50;91.30
26186;DHT22;20067;48.764;9.176;2022-10-16T00:34:19;16.60;91.30
26186;DHT22;20067;48.764;9.176;2022-10-16T00:36:45;16.70;91.30
26186;DHT22;20067;48.764;9.176;2022-10-16T00:39:10;16.70;91.30
26186;DHT22;20067;48.764;9.176;2022-10-16T00:41:36;16.50;91.30
26186;DHT22;20067;48.764;9.176;2022-10-16T00:44:42;16.40;91.30
26186;DHT22;20067;48.764;9.176;2022-10-16T00:46:50;16.40;91.30
26186;DHT22;20067;48.764;9.176;2022-10-16T00:49:19;16.40;91.30
26186;DHT22;20067;48.764;9.176;2022-10-16T00:51:47;16.40;91.30
26186;DHT22;20067;48.764;9.176;2022-10-16T00:54:32;16.40;91.30
26186;DHT22;20067;48.764;9.176;2022-10-16T00:57:04;16.40;91.30
26186;DHT22;20067;48.764;9.176;2022-10-16T00:59:36;16.30;91.30
26186;DHT22;20067;48.764;9.176;2022-10-16T01:02:04;16.30;91.30
26186;DHT22;20067;48.764;9.176;2022-10-16T01:04:35;16.30;91.30
26186;DHT22;20067;48.764;9.176;2022-10-16T01:13:06;16.20;91.30
26186;DHT22;20067;48.764;9.176;2022-10-16T01:15:14;16.40;91.30
26186;DHT22;20067;48.764;9.176;2022-10-16T01:17:48;16.30;91.30
26186;DHT22;20067;48.764;9.176;2022-10-16T01:26:56;16.40;91.30
26186;DHT22;20067;48.764;9.176;2022-10-16T01:28:54;16.30;91.30
26186;DHT22;20067;48.764;9.176;2022-10-16T01:31:24;16.40;91.30
26186;DHT22;20067;48.764;9.176;2022-10-16T01:33:58;16.40;91.30
26186;DHT22;20067;48.764;9.176;2022-10-16T01:36:30;16.50;91.30
26186;DHT22;20067;48.764;9.176;2022-10-16T01:39:01;16.40;91.30
26186;DHT22;20067;48.764;9.176;2022-10-16T01:41:41;16.40;91.30
26186;DHT22;20067;48.764;9.176;2022-10-16T01:44:18;16.50;91.30
26186;DHT22;20067;48.764;9.176;2022-10-16T01:46:47;16.50;91.30
26186;DHT22;20067;48.764;9.176;2022-10-16T01:49:14;16.50;91.30
26186;DHT22;20067;48.764;9.176;2022-10-16T01:51:44;16.50;91.30
26186;DHT22;20067;48.764;9.176;2022-10-16T01:54:13;16.40;91.30
26186;DHT22;20067;48.764;9.176;2022-10-16T01:56:42;16.50;91.30
26186;DHT22;20067;48.764;9.176;2022-10-16T01:59:16;16.30;91.30
26186;DHT22;20067;48.764;9.176;2022-10-16T02:01:50;16.30;91.30
26186;DHT22;20067;48.764;9.176;2022-10-16T02:04:28;16.40;91.30
26186;DHT22;20067;48.764;9.176;2022-10-16T02:06:55;16.40;91.30
26186;DHT22;20067;48.764;9.176;2022-10-16T02:09:21;16.40;91.30
26186;DHT22;20067;48.764;9.176;2022-10-16T02:11:47;16.30;91.30
26186;DHT22;20067;48.764;9.176;2022-10-16T02:14:15;16.40;91.30
26186;DHT22;20067;48.764;9.176;2022-10-16T02:16:45;16.50;91.30
26186;DHT22;20067;48.764;9.176;2022-10-16T02:19:15;16.50;91.30
26186;DHT22;20067;48.764;9.176;2022-10-16T02:21:58;16.50;91.30
26186;DHT22;20067;48.764;9.176;2022-10-16T02:27:24;16.60;91.30
26186;DHT22;20067;48.764;9.176;2022-10-16T02:32:46;16.60;91.30
26186;DHT22;20067;48.764;9.176;2022-10-16T02:35:15;16.50;91.30
26186;DHT22;20067;48.764;9.176;2022-10-16T02:37:42;16.50;91.30
26186;DHT22;20067;48.764;9.176;2022-10-16T02:40:08;16.50;91.30
26186;DHT22;20067;48.764;9.176;2022-10-16T02:42:37;16.50;91.30
26186;DHT22;20067;48.764;9.176;2022-10-16T02:45:04;16.60;91.30
26186;DHT22;20067;48.764;9.176;2022-10-16T02:47:30;16.60;91.30
26186;DHT22;20067;48.764;9.176;2022-10-16T02:49:55;16.60;91.30
26186;DHT22;20067;48.764;9.176;2022-10-16T02:52:21;16.60;91.30
26186;DHT22;20067;48.764;9.176;2022-10-16T02:54:47;16.70;91.30
26186;DHT22;20067;48.764;9.176;2022-10-16T02:57:13;16.70;91.30
26186;DHT22;20067;48.764;9.176;2022-10-16T02:59:38;16.70;91.30
26186;DHT22;20067;48.764;9.176;2022-10-16T03:02:04;16.70;91.30
26186;DHT22;20067;48.764;9.176;2022-10-16T03:04:30;16.70;91.30
26186;DHT22;20067;48.764;9.176;2022-10-16T03:06:55;16.70;91.30
26186;DHT22;20067;48.764;9.176;2022-10-16T03:09:21;16.60;91.30
26186;DHT22;20067;48.764;9.176;2022-10-16T03:11:47;16.60;91.30
26186;DHT22;20067;48.764;9.176;2022-10-16T03:14:12;16.50;91.30
26186;DHT22;20067;48.764;9.176;2022-10-16T03:16:38;16.50;91.30
26186;DHT22;20067;48.764;9.176;2022-10-16T03:19:04;16.50;91.30
26186;DHT22;20067;48.764;9.176;2022-10-16T03:21:29;16.50;91.30
26186;DHT22;20067;48.764;9.176;2022-10-16T03:23:55;16.60;91.30
26186;DHT22;20067;48.764;9.176;2022-10-16T03:26:21;16.70;91.30
26186;DHT22;20067;48.764;9.176;2022-10-16T03:28:46;16.50;91.30
26186;DHT22;20067;48.764;9.176;2022-10-16T03:31:12;16.50;91.30
26186;DHT22;20067;48.764;9.176;2022-10-16T03:33:39;16.40;91.30
26186;DHT22;20067;48.764;9.176;2022-10-16T03:36:04;16.30;91.30
26186;DHT22;20067;48.764;9.176;2022-10-16T03:38:30;16.30;91.30
26186;DHT22;20067;48.764;9.176;2022-10-16T03:40:56;16.30;91.30
26186;DHT22;20067;48.764;9.176;2022-10-16T03:43:21;16.20;91.30
26186;DHT22;20067;48.764;9.176;2022-10-16T03:45:47;16.40;91.30
26186;DHT22;20067;48.764;9.176;2022-10-16T03:48:12;16.50;91.30
26186;DHT22;20067;48.764;9.176;2022-10-16T03:50:38;16.50;91.30
26186;DHT22;20067;48.764;9.176;2022-10-16T03:53:04;16.40;91.30
26186;DHT22;20067;48.764;9.176;2022-10-16T03:55:30;16.20;91.30
26186;DHT22;20067;48.764;9.176;2022-10-16T03:57:55;16.20;91.30
26186;DHT22;20067;48.764;9.176;2022-10-16T04:00:21;16.20;91.30
26186;DHT22;20067;48.764;9.176;2022-10-16T04:02:47;16.20;91.30
26186;DHT22;20067;48.764;9.176;2022-10-16T04:05:12;16.20;91.30
26186;DHT22;20067;48.764;9.176;2022-10-16T04:07:38;16.30;91.30
26186;DHT22;20067;48.764;9.176;2022-10-16T04:10:04;16.30;91.30
26186;DHT22;20067;48.764;9.176;2022-10-16T04:12:30;16.30;91.30
26186;DHT22;20067;48.764;9.176;2022-10-16T04:14:55;16.30;91.30
26186;DHT22;20067;48.764;9.176;2022-10-16T04:17:21;16.30;91.30
26186;DHT22;20067;48.764;9.176;2022-10-16T04:19:47;16.30;91.30
26186;DHT22;20067;48.764;9.176;2022-10-16T04:22:12;16.30;91.30
26186;DHT22;20067;48.764;9.176;2022-10-16T04:24:38;16.30;91.30
26186;DHT22;20067;48.764;9.176;2022-10-16T04:27:04;16.30;91.30
26186;DHT22;20067;48.764;9.176;2022-10-16T04:29:29;16.30;91.30
26186;DHT22;20067;48.764;9.176;2022-10-16T04:31:55;16.30;91.30
26186;DHT22;20067;48.764;9.176;2022-10-16T04:34:21;16.30;91.30
26186;DHT22;20067;48.764;9.176;2022-10-16T04:36:49;16.40;91.30
26186;DHT22;20067;48.764;9.176;2022-10-16T04:39:15;16.40;91.30
26186;DHT22;20067;48.764;9.176;2022-10-16T04:41:41;16.40;91.30
26186;DHT22;20067;48.764;9.176;2022-10-16T04:44:07;16.30;91.30
26186;DHT22;20067;48.764;9.176;2022-10-16T04:46:33;16.30;91.30
26186;DHT22;20067;48.764;9.176;2022-10-16T04:48:59;16.40;91.30
26186;DHT22;20067;48.764;9.176;2022-10-16T04:51:24;16.30;91.30
26186;DHT22;20067;48.764;9.176;2022-10-16T04:53:51;16.40;91.30
26186;DHT22;20067;48.764;9.176;2022-10-16T04:56:16;16.40;91.30
26186;DHT22;20067;48.764;9.176;2022-10-16T04:58:43;16.40;91.30
26186;DHT22;20067;48.764;9.176;2022-10-16T05:01:09;16.40;91.30
26186;DHT22;20067;48.764;9.176;2022-10-16T05:03:35;16.40;91.30
26186;DHT22;20067;48.764;9.176;2022-10-16T05:06:00;16.40;91.30
26186;DHT22;20067;48.764;9.176;2022-10-16T05:08:26;16.50;91.30
26186;DHT22;20067;48.764;9.176;2022-10-16T05:10:52;16.50;91.30
26186;DHT22;20067;48.764;9.176;2022-10-16T05:13:17;16.50;91.30
26186;DHT22;20067;48.764;9.176;2022-10-16T05:15:47;16.40;91.30
26186;DHT22;20067;48.764;9.176;2022-10-16T05:18:13;16.20;91.30
26186;DHT22;20067;48.764;9.176;2022-10-16T05:20:39;16.20;91.30
26186;DHT22;20067;48.764;9.176;2022-10-16T05:23:05;16.10;91.30
26186;DHT22;20067;48.764;9.176;2022-10-16T05:25:30;16.10;91.30
26186;DHT22;20067;48.764;9.176;2022-10-16T05:27:56;16.20;91.30
26186;DHT22;20067;48.764;9.176;2022-10-16T05:30:22;16.10;91.30
26186;DHT22;20067;48.764;9.176;2022-10-16T05:32:49;16.10;91.30
26186;DHT22;20067;48.764;9.176;2022-10-16T05:35:15;16.10;91.30
26186;DHT22;20067;48.764;9.176;2022-10-16T05:37:42;16.10;91.30
26186;DHT22;20067;48.764;9.176;2022-10-16T05:40:08;16.10;91.30
26186;DHT22;20067;48.764;9.176;2022-10-16T05:42:34;16.20;91.30
26186;DHT22;20067;48.764;9.176;2022-10-16T05:45:04;16.20;91.30
26186;DHT22;20067;48.764;9.176;2022-10-16T05:47:30;16.20;91.30
26186;DHT22;20067;48.764;9.176;2022-10-16T05:49:56;16.30;91.30
26186;DHT22;20067;48.764;9.176;2022-10-16T05:52:21;16.10;91.30
26186;DHT22;20067;48.764;9.176;2022-10-16T05:54:47;16.10;91.30
26186;DHT22;20067;48.764;9.176;2022-10-16T05:57:13;16.10;91.30
26186;DHT22;20067;48.764;9.176;2022-10-16T05:59:38;16.00;91.30
26186;DHT22;20067;48.764;9.176;2022-10-16T06:02:04;16.10;91.30
26186;DHT22;20067;48.764;9.176;2022-10-16T06:04:29;16.10;91.30
26186;DHT22;20067;48.764;9.176;2022-10-16T06:06:58;16.20;91.30
26186;DHT22;20067;48.764;9.176;2022-10-16T06:09:25;16.20;91.30
26186;DHT22;20067;48.764;9.176;2022-10-16T06:11:51;16.20;91.30
26186;DHT22;20067;48.764;9.176;2022-10-16T06:14:17;16.20;91.30
26186;DHT22;20067;48.764;9.176;2022-10-16T06:16:42;16.30;91.30
26186;DHT22;20067;48.764;9.176;2022-10-16T06:19:08;16.30;91.30
26186;DHT22;20067;48.764;9.176;2022-10-16T06:21:35;16.30;91.30
26186;DHT22;20067;48.764;9.176;2022-10-16T06:24:00;16.30;91.30
26186;DHT22;20067;48.764;9.176;2022-10-16T06:26:28;16.40;91.30
26186;DHT22;20067;48.764;9.176;2022-10-16T06:28:55;16.40;91.30
26186;DHT22;20067;48.764;9.176;2022-10-16T06:31:21;16.50;91.30
26186;DHT22;20067;48.764;9.176;2022-10-16T06:33:50;16.50;91.30
26186;DHT22;20067;48.764;9.176;2022-10-16T06:36:17;16.50;91.30
26186;DHT22;20067;48.764;9.176;2022-10-16T06:38:44;16.60;91.30
26186;DHT22;20067;48.764;9.176;2022-10-16T06:41:14;16.50;91.30
26186;DHT22;20067;48.764;9.176;2022-10-16T06:43:40;16.50;91.30
26186;DHT22;20067;48.764;9.176;2022-10-16T06:46:08;16.60;91.30
26186;DHT22;20067;48.764;9.176;2022-10-16T06:48:35;16.60;91.30
26186;DHT22;20067;48.764;9.176;2022-10-16T06:53:29;16.50;91.30
26186;DHT22;20067;48.764;9.176;2022-10-16T06:55:55;16.60;91.30
26186;DHT22;20067;48.764;9.176;2022-10-16T06:58:21;16.60;91.30
26186;DHT22;20067;48.764;9.176;2022-10-16T07:00:47;16.80;91.30
26186;DHT22;20067;48.764;9.176;2022-10-16T07:03:13;16.90;91.30
26186;DHT22;20067;48.764;9.176;2022-10-16T07:05:40;17.00;91.30
26186;DHT22;20067;48.764;9.176;2022-10-16T07:08:06;17.10;91.30
26186;DHT22;20067;48.764;9.176;2022-10-16T07:10:33;17.20;91.30
26186;DHT22;20067;48.764;9.176;2022-10-16T07:12:59;17.30;91.30
26186;DHT22;20067;48.764;9.176;2022-10-16T07:15:25;17.30;91.30
26186;DHT22;20067;48.764;9.176;2022-10-16T07:17:51;17.40;91.30
26186;DHT22;20067;48.764;9.176;2022-10-16T07:20:17;17.50;91.30
26186;DHT22;20067;48.764;9.176;2022-10-16T07:22:43;17.60;91.30
26186;DHT22;20067;48.764;9.176;2022-10-16T07:25:09;17.60;91.30
26186;DHT22;20067;48.764;9.176;2022-10-16T07:27:35;17.60;91.30
26186;DHT22;20067;48.764;9.176;2022-10-16T07:30:01;17.60;91.30
26186;DHT22;20067;48.764;9.176;2022-10-16T07:32:27;17.60;91.30
26186;DHT22;20067;48.764;9.176;2022-10-16T07:34:53;17.60;91.30
26186;DHT22;20067;48.764;9.176;2022-10-16T07:37:19;17.60;91.30
26186;DHT22;20067;48.764;9.176;2022-10-16T07:39:45;17.70;91.30
26186;DHT22;20067;48.764;9.176;2022-10-16T07:42:10;17.70;91.30
26186;DHT22;20067;48.764;9.176;2022-10-16T07:44:36;17.80;91.30
26186;DHT22;20067;48.764;9.176;2022-10-16T07:47:02;17.80;91.30
26186;DHT22;20067;48.764;9.176;2022-10-16T07:49:28;17.80;91.30
26186;DHT22;20067;48.764;9.176;2022-10-16T07:51:53;17.90;91.30
26186;DHT22;20067;48.764;9.176;2022-10-16T07:54:19;17.90;91.30
26186;DHT22;20067;48.764;9.176;2022-10-16T07:56:45;17.90;91.30
26186;DHT22;20067;48.764;9.176;2022-10-16T07:59:10;17.90;91.30
26186;DHT22;20067;48.764;9.176;2022-10-16T08:01:36;18.10;91.30
26186;DHT22;20067;48.764;9.176;2022-10-16T08:04:02;18.20;91.30
26186;DHT22;20067;48.764;9.176;2022-10-16T08:06:28;18.10;91.30
26186;DHT22;20067;48.764;9.176;2022-10-16T08:08:54;18.10;91.30
26186;DHT22;20067;48.764;9.176;2022-10-16T08:11:19;18.20;91.30
26186;DHT22;20067;48.764;9.176;2022-10-16T08:13:45;18.30;91.30
26186;DHT22;20067;48.764;9.176;2022-10-16T08:16:11;18.40;91.30
26186;DHT22;20067;48.764;9.176;2022-10-16T08:18:38;18.50;91.30
26186;DHT22;20067;48.764;9.176;2022-10-16T08:21:05;18.60;91.30
26186;DHT22;20067;48.764;9.176;2022-10-16T08:23:32;18.60;91.30
26186;DHT22;20067;48.764;9.176;2022-10-16T08:26:06;18.80;91.30
26186;DHT22;20067;48.764;9.176;2022-10-16T08:28:32;19.00;90.90
26186;DHT22;20067;48.764;9.176;2022-10-16T08:33:33;19.30;89.80
26186;DHT22;20067;48.764;9.176;2022-10-16T08:36:00;19.40;89.30
26186;DHT22;20067;48.764;9.176;2022-10-16T08:38:26;19.40;89.60
26186;DHT22;20067;48.764;9.176;2022-10-16T08:46:28;19.30;89.70
26186;DHT22;20067;48.764;9.176;2022-10-16T08:48:58;19.30;90.00
26186;DHT22;20067;48.764;9.176;2022-10-16T08:51:26;19.20;90.40
26186;DHT22;20067;48.764;9.176;2022-10-16T08:54:06;19.10;90.40
26186;DHT22;20067;48.764;9.176;2022-10-16T08:56:37;18.90;90.60
26186;DHT22;20067;48.764;9.176;2022-10-16T08:59:09;19.00;90.70
26186;DHT22;20067;48.764;9.176;2022-10-16T09:01:40;19.00;90.30
26186;DHT22;20067;48.764;9.176;2022-10-16T09:06:52;19.10;90.20
26186;DHT22;20067;48.764;9.176;2022-10-16T09:09:54;19.20;89.90
26186;DHT22;20067;48.764;9.176;2022-10-16T09:12:24;19.50;88.60
26186;DHT22;20067;48.764;9.176;2022-10-16T09:15:03;19.60;87.40
26186;DHT22;20067;48.764;9.176;2022-10-16T09:23:18;20.00;86.60
26186;DHT22;20067;48.764;9.176;2022-10-16T09:25:46;20.20;85.30
26186;DHT22;20067;48.764;9.176;2022-10-16T09:28:13;20.40;85.70
26186;DHT22;20067;48.764;9.176;2022-10-16T09:30:40;20.60;85.30
26186;DHT22;20067;48.764;9.176;2022-10-16T09:33:06;20.50;84.80
26186;DHT22;20067;48.764;9.176;2022-10-16T09:35:43;20.50;85.50
26186;DHT22;20067;48.764;9.176;2022-10-16T09:38:30;20.70;84.70
26186;DHT22;20067;48.764;9.176;2022-10-16T09:41:02;22.30;81.80
26186;DHT22;20067;48.764;9.176;2022-10-16T09:48:50;22.40;78.90
26186;DHT22;20067;48.764;9.176;2022-10-16T09:54:01;22.50;79.20
26186;DHT22;20067;48.764;9.176;2022-10-16T09:56:32;24.00;76.50
26186;DHT22;20067;48.764;9.176;2022-10-16T09:59:01;24.80;72.60
26186;DHT22;20067;48.764;9.176;2022-10-16T10:04:13;23.30;76.80
26186;DHT22;20067;48.764;9.176;2022-10-16T10:06:47;23.00;77.00
26186;DHT22;20067;48.764;9.176;2022-10-16T10:09:39;23.00;77.30
26186;DHT22;20067;48.764;9.176;2022-10-16T10:12:14;22.70;77.80
26186;DHT22;20067;48.764;9.176;2022-10-16T10:14:58;22.50;78.70
26186;DHT22;20067;48.764;9.176;2022-10-16T10:17:29;22.60;78.20
26186;DHT22;20067;48.764;9.176;2022-10-16T10:20:24;22.60;77.60
26186;DHT22;20067;48.764;9.176;2022-10-16T10:22:51;22.90;77.10
26186;DHT22;20067;48.764;9.176;2022-10-16T10:25:28;23.10;76.00
26186;DHT22;20067;48.764;9.176;2022-10-16T10:28:10;23.20;75.40
26186;DHT22;20067;48.764;9.176;2022-10-16T10:36:33;23.30;75.10
26186;DHT22;20067;48.764;9.176;2022-10-16T10:47:22;25.70;69.70
26186;DHT22;20067;48.764;9.176;2022-10-16T10:52:59;26.60;68.80
26186;DHT22;20067;48.764;9.176;2022-10-16T10:55:48;29.40;63.20
26186;DHT22;20067;48.764;9.176;2022-10-16T11:01:56;34.20;53.00
26186;DHT22;20067;48.764;9.176;2022-10-16T11:07:00;34.40;50.40
26186;DHT22;20067;48.764;9.176;2022-10-16T11:09:47;35.70;48.80
26186;DHT22;20067;48.764;9.176;2022-10-16T11:12:20;36.00;48.40
26186;DHT22;20067;48.764;9.176;2022-10-16T11:15:16;35.00;50.00
26186;DHT22;20067;48.764;9.176;2022-10-16T11:18:02;34.30;51.70
26186;DHT22;20067;48.764;9.176;2022-10-16T11:20:40;33.20;52.70
26186;DHT22;20067;48.764;9.176;2022-10-16T11:23:51;31.80;55.00
26186;DHT22;20067;48.764;9.176;2022-10-16T11:26:23;30.50;57.30
26186;DHT22;20067;48.764;9.176;2022-10-16T11:28:56;29.40;60.10
26186;DHT22;20067;48.764;9.176;2022-10-16T11:31:38;29.30;60.30
26186;DHT22;20067;48.764;9.176;2022-10-16T11:39:30;27.60;63.10
26186;DHT22;20067;48.764;9.176;2022-10-16T11:42:10;27.20;63.20
26186;DHT22;20067;48.764;9.176;2022-10-16T11:44:57;26.90;63.90
26186;DHT22;20067;48.764;9.176;2022-10-16T11:49:59;26.30;64.90
26186;DHT22;20067;48.764;9.176;2022-10-16T11:55:20;25.60;68.40
26186;DHT22;20067;48.764;9.176;2022-10-16T11:57:57;26.00;67.50
26186;DHT22;20067;48.764;9.176;2022-10-16T12:03:33;25.40;68.70
26186;DHT22;20067;48.764;9.176;2022-10-16T12:08:43;24.70;69.70
26186;DHT22;20067;48.764;9.176;2022-10-16T12:14:04;24.80;70.30
26186;DHT22;20067;48.764;9.176;2022-10-16T12:16:31;24.80;69.50
26186;DHT22;20067;48.764;9.176;2022-10-16T12:19:14;24.70;69.90
26186;DHT22;20067;48.764;9.176;2022-10-16T12:21:41;24.70;69.70
26186;DHT22;20067;48.764;9.176;2022-10-16T12:26:54;24.40;70.30
26186;DHT22;20067;48.764;9.176;2022-10-16T12:31:58;24.50;69.30
26186;DHT22;20067;48.764;9.176;2022-10-16T12:39:46;25.00;67.80
26186;DHT22;20067;48.764;9.176;2022-10-16T12:44:46;25.20;68.00
26186;DHT22;20067;48.764;9.176;2022-10-16T12:50:25;25.20;67.90
26186;DHT22;20067;48.764;9.176;2022-10-16T12:52:51;25.20;68.00
26186;DHT22;20067;48.764;9.176;2022-10-16T12:55:19;25.40;67.90
26186;DHT22;20067;48.764;9.176;2022-10-16T13:01:16;25.10;69.10
26186;DHT22;20067;48.764;9.176;2022-10-16T13:09:35;24.80;70.60
26186;DHT22;20067;48.764;9.176;2022-10-16T13:14:58;24.40;71.50
26186;DHT22;20067;48.764;9.176;2022-10-16T13:20:28;24.70;71.30
26186;DHT22;20067;48.764;9.176;2022-10-16T13:28:32;25.10;71.20
26186;DHT22;20067;48.764;9.176;2022-10-16T13:30:59;25.00;71.40
26186;DHT22;20067;48.764;9.176;2022-10-16T13:33:46;24.50;71.50
26186;DHT22;20067;48.764;9.176;2022-10-16T13:36:21;24.70;71.70
26186;DHT22;20067;48.764;9.176;2022-10-16T13:38:47;24.70;72.00
26186;DHT22;20067;48.764;9.176;2022-10-16T13:41:16;25.00;72.70
26186;DHT22;20067;48.764;9.176;2022-10-16T13:43:49;25.20;71.60
26186;DHT22;20067;48.764;9.176;2022-10-16T13:46:20;25.20;70.60
26186;DHT22;20067;48.764;9.176;2022-10-16T13:49:24;25.30;71.20
26186;DHT22;20067;48.764;9.176;2022-10-16T13:51:59;25.20;71.10
26186;DHT22;20067;48.764;9.176;2022-10-16T13:54:27;24.90;71.10
26186;DHT22;20067;48.764;9.176;2022-10-16T13:56:54;24.70;71.70
26186;DHT22;20067;48.764;9.176;2022-10-16T13:59:33;24.90;71.80
26186;DHT22;20067;48.764;9.176;2022-10-16T14:02:00;25.10;70.30
26186;DHT22;20067;48.764;9.176;2022-10-16T14:04:32;24.60;71.50
26186;DHT22;20067;48.764;9.176;2022-10-16T14:06:58;24.10;72.90
26186;DHT22;20067;48.764;9.176;2022-10-16T14:09:26;24.00;72.90
26186;DHT22;20067;48.764;9.176;2022-10-16T14:11:56;23.70;73.60
26186;DHT22;20067;48.764;9.176;2022-10-16T14:14:23;23.50;73.50
26186;DHT22;20067;48.764;9.176;2022-10-16T14:16:49;23.60;73.20
26186;DHT22;20067;48.764;9.176;2022-10-16T14:19:20;23.80;73.70
26186;DHT22;20067;48.764;9.176;2022-10-16T14:21:47;23.80;73.30
26186;DHT22;20067;48.764;9.176;2022-10-16T14:24:22;24.00;74.40
26186;DHT22;20067;48.764;9.176;2022-10-16T14:26:50;24.30;74.80
26186;DHT22;20067;48.764;9.176;2022-10-16T14:29:19;24.10;77.40
26186;DHT22;20067;48.764;9.176;2022-10-16T14:32:00;23.80;79.10
26186;DHT22;20067;48.764;9.176;2022-10-16T14:34:38;23.70;78.80
26186;DHT22;20067;48.764;9.176;2022-10-16T14:37:29;23.60;78.80
26186;DHT22;20067;48.764;9.176;2022-10-16T14:39:56;23.50;78.70
26186;DHT22;20067;48.764;9.176;2022-10-16T14:42:23;23.40;79.20
26186;DHT22;20067;48.764;9.176;2022-10-16T14:44:54;23.40;79.90
26186;DHT22;20067;48.764;9.176;2022-10-16T14:47:25;23.30;79.90
26186;DHT22;20067;48.764;9.176;2022-10-16T14:49:52;23.20;80.50
26186;DHT22;20067;48.764;9.176;2022-10-16T14:52:24;23.20;80.80
26186;DHT22;20067;48.764;9.176;2022-10-16T14:54:50;23.20;81.10
26186;DHT22;20067;48.764;9.176;2022-10-16T14:57:23;23.20;81.60
26186;DHT22;20067;48.764;9.176;2022-10-16T14:59:49;23.20;81.10
26186;DHT22;20067;48.764;9.176;2022-10-16T15:02:34;23.20;80.50
26186;DHT22;20067;48.764;9.176;2022-10-16T15:05:12;23.10;80.30
26186;DHT22;20067;48.764;9.176;2022-10-16T15:07:38;23.10;80.30
26186;DHT22;20067;48.764;9.176;2022-10-16T15:10:04;23.20;79.90
26186;DHT22;20067;48.764;9.176;2022-10-16T15:12:30;23.20;79.90
26186;DHT22;20067;48.764;9.176;2022-10-16T15:14:56;23.30;79.60
26186;DHT22;20067;48.764;9.176;2022-10-16T15:17:21;23.40;80.10
26186;DHT22;20067;48.764;9.176;2022-10-16T15:19:47;23.40;78.70
26186;DHT22;20067;48.764;9.176;2022-10-16T15:22:13;23.40;78.70
26186;DHT22;20067;48.764;9.176;2022-10-16T15:24:38;23.30;79.50
26186;DHT22;20067;48.764;9.176;2022-10-16T15:27:04;23.30;80.20
26186;DHT22;20067;48.764;9.176;2022-10-16T15:29:30;23.50;80.50
26186;DHT22;20067;48.764;9.176;2022-10-16T15:31:56;23.60;80.20
26186;DHT22;20067;48.764;9.176;2022-10-16T15:34:22;23.60;80.00
26186;DHT22;20067;48.764;9.176;2022-10-16T15:36:47;23.50;79.90
26186;DHT22;20067;48.764;9.176;2022-10-16T15:39:16;23.30;81.30
26186;DHT22;20067;48.764;9.176;2022-10-16T15:41:42;23.20;81.70
26186;DHT22;20067;48.764;9.176;2022-10-16T15:44:08;23.00;82.20
26186;DHT22;20067;48.764;9.176;2022-10-16T15:46:34;22.80;83.20
26186;DHT22;20067;48.764;9.176;2022-10-16T15:49:00;22.50;84.40
26186;DHT22;20067;48.764;9.176;2022-10-16T15:51:26;22.30;85.00
26186;DHT22;20067;48.764;9.176;2022-10-16T15:53:59;22.30;85.40
26186;DHT22;20067;48.764;9.176;2022-10-16T15:56:27;22.30;85.40
26186;DHT22;20067;48.764;9.176;2022-10-16T15:58:54;22.10;85.60
26186;DHT22;20067;48.764;9.176;2022-10-16T16:01:20;22.00;86.20
26186;DHT22;20067;48.764;9.176;2022-10-16T16:03:46;21.90;86.60
26186;DHT22;20067;48.764;9.176;2022-10-16T16:06:13;21.80;86.90
26186;DHT22;20067;48.764;9.176;2022-10-16T16:08:39;21.70;87.40
26186;DHT22;20067;48.764;9.176;2022-10-16T16:11:10;21.70;87.80
26186;DHT22;20067;48.764;9.176;2022-10-16T16:13:37;21.70;87.70
26186;DHT22;20067;48.764;9.176;2022-10-16T16:16:11;21.70;87.60
26186;DHT22;20067;48.764;9.176;2022-10-16T16:18:38;21.80;87.00
26186;DHT22;20067;48.764;9.176;2022-10-16T16:21:04;21.80;86.60
26186;DHT22;20067;48.764;9.176;2022-10-16T16:23:30;21.70;86.50
26186;DHT22;20067;48.764;9.176;2022-10-16T16:28:38;21.40;87.00
26186;DHT22;20067;48.764;9.176;2022-10-16T16:31:04;21.20;87.30
26186;DHT22;20067;48.764;9.176;2022-10-16T16:33:30;21.00;87.80
26186;DHT22;20067;48.764;9.176;2022-10-16T16:36:01;20.80;88.10
26186;DHT22;20067;48.764;9.176;2022-10-16T16:38:28;20.70;88.50
26186;DHT22;20067;48.764;9.176;2022-10-16T16:40:54;20.70;89.20
26186;DHT22;20067;48.764;9.176;2022-10-16T16:43:27;20.80;88.30
26186;DHT22;20067;48.764;9.176;2022-10-16T16:45:53;20.80;87.80
26186;DHT22;20067;48.764;9.176;2022-10-16T16:48:20;20.60;88.20
26186;DHT22;20067;48.764;9.176;2022-10-16T16:50:46;20.50;88.80
26186;DHT22;20067;48.764;9.176;2022-10-16T16:53:12;20.50;88.80
26186;DHT22;20067;48.764;9.176;2022-10-16T16:55:38;20.40;88.30
26186;DHT22;20067;48.764;9.176;2022-10-16T16:58:04;20.30;88.90
26186;DHT22;20067;48.764;9.176;2022-10-16T17:00:30;20.20;89.40
26186;DHT22;20067;48.764;9.176;2022-10-16T17:02:56;20.20;89.20
26186;DHT22;20067;48.764;9.176;2022-10-16T17:05:22;20.10;89.40
26186;DHT22;20067;48.764;9.176;2022-10-16T17:07:48;20.00;89.60
26186;DHT22;20067;48.764;9.176;2022-10-16T17:10:17;20.00;89.80
26186;DHT22;20067;48.764;9.176;2022-10-16T17:12:42;19.90;89.90
26186;DHT22;20067;48.764;9.176;2022-10-16T17:15:08;19.90;90.20
26186;DHT22;20067;48.764;9.176;2022-10-16T17:17:34;19.90;90.30
26186;DHT22;20067;48.764;9.176;2022-10-16T17:20:00;19.90;90.40
26186;DHT22;20067;48.764;9.176;2022-10-16T17:22:25;19.70;90.60
26186;DHT22;20067;48.764;9.176;2022-10-16T17:24:51;19.60;91.30
26186;DHT22;20067;48.764;9.176;2022-10-16T17:27:20;19.50;91.30
26186;DHT22;20067;48.764;9.176;2022-10-16T17:29:50;19.50;91.30
26186;DHT22;20067;48.764;9.176;2022-10-16T17:32:16;19.30;91.30
26186;DHT22;20067;48.764;9.176;2022-10-16T17:34:42;19.20;91.30
26186;DHT22;20067;48.764;9.176;2022-10-16T17:37:07;19.20;91.30
26186;DHT22;20067;48.764;9.176;2022-10-16T17:39:33;19.20;91.30
26186;DHT22;20067;48.764;9.176;2022-10-16T17:41:59;19.30;91.30
26186;DHT22;20067;48.764;9.176;2022-10-16T17:44:24;19.30;91.30
26186;DHT22;20067;48.764;9.176;2022-10-16T17:46:52;19.30;91.30
26186;DHT22;20067;48.764;9.176;2022-10-16T17:49:19;19.30;91.30